sensor_id;sensor_type;location;lat;lon;timestamp;P1;durP1;ratioP1;P2;durP2;ratioP2
66707;SDS011;53622;0.000;0.000;2023-11-22T00:01:36;0.47;;;0.47;;
66707;SDS011;53622;0.000;0.000;2023-11-22T00:04:04;1.05;;;0.60;;
66707;SDS011;53622;0.000;0.000;2023-11-22T00:06:33;0.73;;;0.60;;
66707;SDS011;53622;0.000;0.000;2023-11-22T00:09:02;0.85;;;0.60;;
66707;SDS011;53622;0.000;0.000;2023-11-22T00:11:31;0.50;;;0.50;;
66707;SDS011;53622;0.000;0.000;2023-11-22T00:14:01;0.70;;;0.50;;
66707;SDS011;53622;0.000;0.000;2023-11-22T00:16:30;0.60;;;0.60;;
66707;SDS011;53622;0.000;0.000;2023-11-22T00:18:59;0.65;;;0.60;;
66707;SDS011;53622;0.000;0.000;2023-11-22T00:21:27;1.40;;;0.57;;
66707;SDS011;53622;0.000;0.000;2023-11-22T00:23:56;0.45;;;0.45;;
66707;SDS011;53622;0.000;0.000;2023-11-22T00:26:25;0.82;;;0.60;;
66707;SDS011;53622;0.000;0.000;2023-11-22T00:28:57;0.70;;;0.63;;
66707;SDS011;53622;0.000;0.000;2023-11-22T00:31:28;0.60;;;0.60;;
66707;SDS011;53622;0.000;0.000;2023-11-22T00:33:57;0.70;;;0.70;;
66707;SDS011;53622;0.000;0.000;2023-11-22T00:36:26;0.47;;;0.47;;
66707;SDS011;53622;0.000;0.000;2023-11-22T00:38:56;0.85;;;0.60;;
66707;SDS011;53622;0.000;0.000;2023-11-22T00:41:29;0.68;;;0.57;;
66707;SDS011;53622;0.000;0.000;2023-11-22T00:43:58;0.55;;;0.50;;
66707;SDS011;53622;0.000;0.000;2023-11-22T00:46:28;0.82;;;0.75;;
66707;SDS011;53622;0.000;0.000;2023-11-22T00:48:57;0.50;;;0.50;;
66707;SDS011;53622;0.000;0.000;2023-11-22T00:51:26;0.85;;;0.55;;
66707;SDS011;53622;0.000;0.000;2023-11-22T00:53:54;0.50;;;0.50;;
66707;SDS011;53622;0.000;0.000;2023-11-22T00:56:23;0.50;;;0.50;;
66707;SDS011;53622;0.000;0.000;2023-11-22T00:58:52;0.40;;;0.40;;
66707;SDS011;53622;0.000;0.000;2023-11-22T01:01:22;0.70;;;0.70;;
66707;SDS011;53622;0.000;0.000;2023-11-22T01:03:52;0.50;;;0.50;;
66707;SDS011;53622;0.000;0.000;2023-11-22T01:06:21;0.80;;;0.80;;
66707;SDS011;53622;0.000;0.000;2023-11-22T01:08:50;1.15;;;0.80;;
66707;SDS011;53622;0.000;0.000;2023-11-22T01:11:18;0.60;;;0.60;;
66707;SDS011;53622;0.000;0.000;2023-11-22T01:13:48;0.65;;;0.65;;
66707;SDS011;53622;0.000;0.000;2023-11-22T01:16:16;0.57;;;0.57;;
66707;SDS011;53622;0.000;0.000;2023-11-22T01:18:45;0.68;;;0.68;;
66707;SDS011;53622;0.000;0.000;2023-11-22T01:21:16;0.60;;;0.60;;
66707;SDS011;53622;0.000;0.000;2023-11-22T01:23:44;0.63;;;0.50;;
66707;SDS011;53622;0.000;0.000;2023-11-22T01:26:13;0.60;;;0.60;;
66707;SDS011;53622;0.000;0.000;2023-11-22T01:28:44;0.90;;;0.60;;
66707;SDS011;53622;0.000;0.000;2023-11-22T01:31:12;0.52;;;0.52;;
66707;SDS011;53622;0.000;0.000;2023-11-22T01:33:41;0.40;;;0.40;;
66707;SDS011;53622;0.000;0.000;2023-11-22T01:36:10;0.63;;;0.60;;
66707;SDS011;53622;0.000;0.000;2023-11-22T01:38:40;0.40;;;0.40;;
66707;SDS011;53622;0.000;0.000;2023-11-22T01:41:11;0.65;;;0.47;;
66707;SDS011;53622;0.000;0.000;2023-11-22T01:43:40;0.65;;;0.65;;
66707;SDS011;53622;0.000;0.000;2023-11-22T01:46:09;0.70;;;0.70;;
66707;SDS011;53622;0.000;0.000;2023-11-22T01:48:43;0.60;;;0.60;;
66707;SDS011;53622;0.000;0.000;2023-11-22T01:51:12;0.80;;;0.60;;
66707;SDS011;53622;0.000;0.000;2023-11-22T01:53:42;0.88;;;0.75;;
66707;SDS011;53622;0.000;0.000;2023-11-22T01:56:11;0.65;;;0.52;;
66707;SDS011;53622;0.000;0.000;2023-11-22T01:58:40;0.73;;;0.60;;
66707;SDS011;53622;0.000;0.000;2023-11-22T02:01:08;0.60;;;0.60;;
66707;SDS011;53622;0.000;0.000;2023-11-22T02:03:39;0.60;;;0.60;;
66707;SDS011;53622;0.000;0.000;2023-11-22T02:06:08;1.10;;;0.60;;
66707;SDS011;53622;0.000;0.000;2023-11-22T02:08:37;0.60;;;0.60;;
66707;SDS011;53622;0.000;0.000;2023-11-22T02:11:08;1.08;;;0.70;;
66707;SDS011;53622;0.000;0.000;2023-11-22T02:13:37;0.60;;;0.60;;
66707;SDS011;53622;0.000;0.000;2023-11-22T02:16:05;0.60;;;0.60;;
66707;SDS011;53622;0.000;0.000;2023-11-22T02:18:34;0.70;;;0.70;;
66707;SDS011;53622;0.000;0.000;2023-11-22T02:21:04;0.70;;;0.70;;
66707;SDS011;53622;0.000;0.000;2023-11-22T02:23:35;0.60;;;0.60;;
66707;SDS011;53622;0.000;0.000;2023-11-22T02:26:04;0.60;;;0.60;;
66707;SDS011;53622;0.000;0.000;2023-11-22T02:28:33;0.52;;;0.52;;
66707;SDS011;53622;0.000;0.000;2023-11-22T02:31:01;0.55;;;0.55;;
66707;SDS011;53622;0.000;0.000;2023-11-22T02:33:30;0.65;;;0.63;;
66707;SDS011;53622;0.000;0.000;2023-11-22T02:35:59;0.60;;;0.60;;
66707;SDS011;53622;0.000;0.000;2023-11-22T02:38:28;0.77;;;0.60;;
66707;SDS011;53622;0.000;0.000;2023-11-22T02:40:59;0.60;;;0.57;;
66707;SDS011;53622;0.000;0.000;2023-11-22T02:43:27;0.55;;;0.55;;
66707;SDS011;53622;0.000;0.000;2023-11-22T02:45:56;0.43;;;0.43;;
66707;SDS011;53622;0.000;0.000;2023-11-22T02:48:25;0.73;;;0.50;;
66707;SDS011;53622;0.000;0.000;2023-11-22T02:50:55;0.43;;;0.43;;
66707;SDS011;53622;0.000;0.000;2023-11-22T02:53:24;0.60;;;0.60;;
66707;SDS011;53622;0.000;0.000;2023-11-22T02:55:53;0.60;;;0.60;;
66707;SDS011;53622;0.000;0.000;2023-11-22T02:58:23;0.52;;;0.52;;
66707;SDS011;53622;0.000;0.000;2023-11-22T03:00:53;0.60;;;0.60;;
66707;SDS011;53622;0.000;0.000;2023-11-22T03:03:24;0.75;;;0.68;;
66707;SDS011;53622;0.000;0.000;2023-11-22T03:05:53;0.60;;;0.60;;
66707;SDS011;53622;0.000;0.000;2023-11-22T03:08:21;0.82;;;0.65;;
66707;SDS011;53622;0.000;0.000;2023-11-22T03:10:50;0.63;;;0.63;;
66707;SDS011;53622;0.000;0.000;2023-11-22T03:13:19;0.70;;;0.70;;
66707;SDS011;53622;0.000;0.000;2023-11-22T03:15:49;0.50;;;0.50;;
66707;SDS011;53622;0.000;0.000;2023-11-22T03:18:19;0.70;;;0.70;;
66707;SDS011;53622;0.000;0.000;2023-11-22T03:20:48;0.60;;;0.57;;
66707;SDS011;53622;0.000;0.000;2023-11-22T03:23:21;0.73;;;0.60;;
66707;SDS011;53622;0.000;0.000;2023-11-22T03:25:50;0.68;;;0.60;;
66707;SDS011;53622;0.000;0.000;2023-11-22T03:28:19;0.95;;;0.80;;
66707;SDS011;53622;0.000;0.000;2023-11-22T03:30:50;0.65;;;0.65;;
66707;SDS011;53622;0.000;0.000;2023-11-22T03:33:19;1.05;;;0.60;;
66707;SDS011;53622;0.000;0.000;2023-11-22T03:35:48;0.88;;;0.70;;
66707;SDS011;53622;0.000;0.000;2023-11-22T03:38:17;0.50;;;0.50;;
66707;SDS011;53622;0.000;0.000;2023-11-22T03:40:46;0.65;;;0.65;;
66707;SDS011;53622;0.000;0.000;2023-11-22T03:43:15;0.68;;;0.60;;
66707;SDS011;53622;0.000;0.000;2023-11-22T03:45:44;0.70;;;0.70;;
66707;SDS011;53622;0.000;0.000;2023-11-22T03:48:14;0.80;;;0.80;;
66707;SDS011;53622;0.000;0.000;2023-11-22T03:50:43;0.52;;;0.50;;
66707;SDS011;53622;0.000;0.000;2023-11-22T03:53:12;0.60;;;0.60;;
66707;SDS011;53622;0.000;0.000;2023-11-22T03:55:40;0.70;;;0.70;;
66707;SDS011;53622;0.000;0.000;2023-11-22T03:58:09;0.70;;;0.60;;
66707;SDS011;53622;0.000;0.000;2023-11-22T04:00:38;0.55;;;0.55;;
66707;SDS011;53622;0.000;0.000;2023-11-22T04:03:07;0.50;;;0.50;;
66707;SDS011;53622;0.000;0.000;2023-11-22T04:05:37;0.50;;;0.50;;
66707;SDS011;53622;0.000;0.000;2023-11-22T04:08:06;0.50;;;0.50;;
66707;SDS011;53622;0.000;0.000;2023-11-22T04:10:35;0.55;;;0.50;;
66707;SDS011;53622;0.000;0.000;2023-11-22T04:13:04;0.57;;;0.57;;
66707;SDS011;53622;0.000;0.000;2023-11-22T04:15:33;0.65;;;0.50;;
66707;SDS011;53622;0.000;0.000;2023-11-22T04:18:02;0.47;;;0.47;;
66707;SDS011;53622;0.000;0.000;2023-11-22T04:20:31;0.60;;;0.60;;
66707;SDS011;53622;0.000;0.000;2023-11-22T04:23:01;0.60;;;0.60;;
66707;SDS011;53622;0.000;0.000;2023-11-22T04:25:30;0.45;;;0.45;;
66707;SDS011;53622;0.000;0.000;2023-11-22T04:28:01;0.50;;;0.50;;
66707;SDS011;53622;0.000;0.000;2023-11-22T04:30:29;0.80;;;0.80;;
66707;SDS011;53622;0.000;0.000;2023-11-22T04:32:58;0.50;;;0.50;;
66707;SDS011;53622;0.000;0.000;2023-11-22T04:35:27;0.50;;;0.50;;
66707;SDS011;53622;0.000;0.000;2023-11-22T04:37:55;0.65;;;0.60;;
66707;SDS011;53622;0.000;0.000;2023-11-22T04:40:26;0.82;;;0.65;;
66707;SDS011;53622;0.000;0.000;2023-11-22T04:42:55;0.55;;;0.50;;
66707;SDS011;53622;0.000;0.000;2023-11-22T04:45:24;0.80;;;0.60;;
66707;SDS011;53622;0.000;0.000;2023-11-22T04:47:52;0.52;;;0.50;;
66707;SDS011;53622;0.000;0.000;2023-11-22T04:50:24;0.52;;;0.50;;
66707;SDS011;53622;0.000;0.000;2023-11-22T04:52:53;0.60;;;0.60;;
66707;SDS011;53622;0.000;0.000;2023-11-22T04:55:21;0.63;;;0.60;;
66707;SDS011;53622;0.000;0.000;2023-11-22T04:57:52;0.50;;;0.50;;
66707;SDS011;53622;0.000;0.000;2023-11-22T05:00:20;1.17;;;0.60;;
66707;SDS011;53622;0.000;0.000;2023-11-22T05:02:50;0.70;;;0.70;;
66707;SDS011;53622;0.000;0.000;2023-11-22T05:05:19;0.50;;;0.50;;
66707;SDS011;53622;0.000;0.000;2023-11-22T05:07:47;1.08;;;0.50;;
66707;SDS011;53622;0.000;0.000;2023-11-22T05:10:16;0.50;;;0.50;;
66707;SDS011;53622;0.000;0.000;2023-11-22T05:12:45;0.60;;;0.60;;
66707;SDS011;53622;0.000;0.000;2023-11-22T05:15:15;0.50;;;0.50;;
66707;SDS011;53622;0.000;0.000;2023-11-22T05:17:43;0.70;;;0.70;;
66707;SDS011;53622;0.000;0.000;2023-11-22T05:20:12;0.57;;;0.52;;
66707;SDS011;53622;0.000;0.000;2023-11-22T05:22:41;0.63;;;0.63;;
66707;SDS011;53622;0.000;0.000;2023-11-22T05:25:10;0.50;;;0.50;;
66707;SDS011;53622;0.000;0.000;2023-11-22T05:27:39;0.88;;;0.75;;
66707;SDS011;53622;0.000;0.000;2023-11-22T05:30:07;0.63;;;0.57;;
66707;SDS011;53622;0.000;0.000;2023-11-22T05:32:40;0.50;;;0.50;;
66707;SDS011;53622;0.000;0.000;2023-11-22T05:35:08;0.70;;;0.50;;
66707;SDS011;53622;0.000;0.000;2023-11-22T05:37:37;0.60;;;0.60;;
66707;SDS011;53622;0.000;0.000;2023-11-22T05:40:06;0.60;;;0.60;;
66707;SDS011;53622;0.000;0.000;2023-11-22T05:42:37;0.93;;;0.70;;
66707;SDS011;53622;0.000;0.000;2023-11-22T05:45:07;1.80;;;0.73;;
66707;SDS011;53622;0.000;0.000;2023-11-22T05:47:37;0.70;;;0.70;;
66707;SDS011;53622;0.000;0.000;2023-11-22T05:50:07;4.03;;;0.77;;
66707;SDS011;53622;0.000;0.000;2023-11-22T05:52:37;1.30;;;0.70;;
66707;SDS011;53622;0.000;0.000;2023-11-22T05:55:06;2.35;;;0.73;;
66707;SDS011;53622;0.000;0.000;2023-11-22T05:57:35;6.97;;;1.13;;
66707;SDS011;53622;0.000;0.000;2023-11-22T06:00:05;5.03;;;1.08;;
66707;SDS011;53622;0.000;0.000;2023-11-22T06:02:34;7.90;;;0.93;;
66707;SDS011;53622;0.000;0.000;2023-11-22T06:05:04;3.50;;;1.05;;
66707;SDS011;53622;0.000;0.000;2023-11-22T06:07:35;1.92;;;0.93;;
66707;SDS011;53622;0.000;0.000;2023-11-22T06:10:04;3.38;;;0.90;;
66707;SDS011;53622;0.000;0.000;2023-11-22T06:12:33;1.38;;;0.85;;
66707;SDS011;53622;0.000;0.000;2023-11-22T06:15:02;1.58;;;0.95;;
66707;SDS011;53622;0.000;0.000;2023-11-22T06:17:31;5.20;;;1.10;;
66707;SDS011;53622;0.000;0.000;2023-11-22T06:20:00;3.03;;;0.90;;
66707;SDS011;53622;0.000;0.000;2023-11-22T06:22:30;1.02;;;0.70;;
66707;SDS011;53622;0.000;0.000;2023-11-22T06:25:00;1.02;;;0.70;;
66707;SDS011;53622;0.000;0.000;2023-11-22T06:27:29;1.92;;;1.00;;
66707;SDS011;53622;0.000;0.000;2023-11-22T06:29:59;2.47;;;0.70;;
66707;SDS011;53622;0.000;0.000;2023-11-22T06:32:28;0.90;;;0.73;;
66707;SDS011;53622;0.000;0.000;2023-11-22T06:34:57;2.58;;;0.70;;
66707;SDS011;53622;0.000;0.000;2023-11-22T06:37:26;2.45;;;0.82;;
66707;SDS011;53622;0.000;0.000;2023-11-22T06:39:54;1.00;;;0.90;;
66707;SDS011;53622;0.000;0.000;2023-11-22T06:42:25;0.60;;;0.60;;
66707;SDS011;53622;0.000;0.000;2023-11-22T06:44:54;3.58;;;0.95;;
66707;SDS011;53622;0.000;0.000;2023-11-22T06:47:27;0.70;;;0.70;;
66707;SDS011;53622;0.000;0.000;2023-11-22T06:49:56;1.00;;;0.80;;
66707;SDS011;53622;0.000;0.000;2023-11-22T06:52:25;2.53;;;1.30;;
66707;SDS011;53622;0.000;0.000;2023-11-22T06:54:54;3.47;;;1.10;;
66707;SDS011;53622;0.000;0.000;2023-11-22T06:57:22;2.05;;;0.90;;
66707;SDS011;53622;0.000;0.000;2023-11-22T06:59:57;3.38;;;0.95;;
66707;SDS011;53622;0.000;0.000;2023-11-22T07:02:26;1.70;;;0.70;;
66707;SDS011;53622;0.000;0.000;2023-11-22T07:04:54;1.02;;;0.90;;
66707;SDS011;53622;0.000;0.000;2023-11-22T07:07:26;3.20;;;0.98;;
66707;SDS011;53622;0.000;0.000;2023-11-22T07:09:55;2.05;;;0.63;;
66707;SDS011;53622;0.000;0.000;2023-11-22T07:12:26;1.48;;;0.90;;
66707;SDS011;53622;0.000;0.000;2023-11-22T07:14:57;0.88;;;0.52;;
66707;SDS011;53622;0.000;0.000;2023-11-22T07:17:26;0.85;;;0.85;;
66707;SDS011;53622;0.000;0.000;2023-11-22T07:19:56;2.80;;;0.80;;
66707;SDS011;53622;0.000;0.000;2023-11-22T07:22:24;1.40;;;0.80;;
66707;SDS011;53622;0.000;0.000;2023-11-22T07:24:53;3.03;;;0.73;;
66707;SDS011;53622;0.000;0.000;2023-11-22T07:27:26;1.98;;;0.75;;
66707;SDS011;53622;0.000;0.000;2023-11-22T07:29:57;1.67;;;0.60;;
66707;SDS011;53622;0.000;0.000;2023-11-22T07:32:25;2.45;;;0.80;;
66707;SDS011;53622;0.000;0.000;2023-11-22T07:34:54;1.08;;;0.80;;
66707;SDS011;53622;0.000;0.000;2023-11-22T07:37:23;0.98;;;0.88;;
66707;SDS011;53622;0.000;0.000;2023-11-22T07:39:52;1.33;;;0.70;;
66707;SDS011;53622;0.000;0.000;2023-11-22T07:42:21;1.00;;;0.82;;
66707;SDS011;53622;0.000;0.000;2023-11-22T07:44:49;0.93;;;0.90;;
66707;SDS011;53622;0.000;0.000;2023-11-22T07:47:24;1.08;;;0.95;;
66707;SDS011;53622;0.000;0.000;2023-11-22T07:49:53;2.55;;;0.98;;
66707;SDS011;53622;0.000;0.000;2023-11-22T07:52:22;1.05;;;0.90;;
66707;SDS011;53622;0.000;0.000;2023-11-22T07:54:56;4.32;;;1.10;;
66707;SDS011;53622;0.000;0.000;2023-11-22T07:57:25;2.08;;;0.80;;
66707;SDS011;53622;0.000;0.000;2023-11-22T07:59:54;3.15;;;0.80;;
66707;SDS011;53622;0.000;0.000;2023-11-22T08:02:22;2.08;;;0.82;;
66707;SDS011;53622;0.000;0.000;2023-11-22T08:04:53;1.10;;;0.98;;
66707;SDS011;53622;0.000;0.000;2023-11-22T08:07:22;4.40;;;0.80;;
66707;SDS011;53622;0.000;0.000;2023-11-22T08:09:50;4.95;;;1.15;;
66707;SDS011;53622;0.000;0.000;2023-11-22T08:12:19;3.78;;;1.08;;
66707;SDS011;53622;0.000;0.000;2023-11-22T08:14:50;3.80;;;1.30;;
66707;SDS011;53622;0.000;0.000;2023-11-22T08:17:22;2.70;;;1.80;;
66707;SDS011;53622;0.000;0.000;2023-11-22T08:19:52;4.68;;;1.38;;
66707;SDS011;53622;0.000;0.000;2023-11-22T08:22:23;5.25;;;1.45;;
66707;SDS011;53622;0.000;0.000;2023-11-22T08:24:54;3.75;;;1.73;;
66707;SDS011;53622;0.000;0.000;2023-11-22T08:27:24;6.00;;;1.77;;
66707;SDS011;53622;0.000;0.000;2023-11-22T08:29:53;5.63;;;1.73;;
66707;SDS011;53622;0.000;0.000;2023-11-22T08:32:21;4.85;;;2.17;;
66707;SDS011;53622;0.000;0.000;2023-11-22T08:34:56;2.33;;;1.95;;
66707;SDS011;53622;0.000;0.000;2023-11-22T08:37:24;3.30;;;3.00;;
66707;SDS011;53622;0.000;0.000;2023-11-22T08:39:53;3.00;;;2.80;;
66707;SDS011;53622;0.000;0.000;2023-11-22T08:42:22;2.95;;;2.38;;
66707;SDS011;53622;0.000;0.000;2023-11-22T08:44:50;3.25;;;2.40;;
66707;SDS011;53622;0.000;0.000;2023-11-22T08:47:19;4.50;;;4.10;;
66707;SDS011;53622;0.000;0.000;2023-11-22T08:49:48;4.53;;;3.28;;
66707;SDS011;53622;0.000;0.000;2023-11-22T08:52:18;3.40;;;3.20;;
66707;SDS011;53622;0.000;0.000;2023-11-22T08:54:47;4.50;;;3.30;;
66707;SDS011;53622;0.000;0.000;2023-11-22T08:57:16;3.92;;;3.30;;
66707;SDS011;53622;0.000;0.000;2023-11-22T08:59:45;3.88;;;3.08;;
66707;SDS011;53622;0.000;0.000;2023-11-22T09:02:13;3.10;;;2.90;;
66707;SDS011;53622;0.000;0.000;2023-11-22T09:04:42;4.03;;;2.55;;
66707;SDS011;53622;0.000;0.000;2023-11-22T09:07:11;3.65;;;2.50;;
66707;SDS011;53622;0.000;0.000;2023-11-22T09:09:42;4.75;;;2.70;;
66707;SDS011;53622;0.000;0.000;2023-11-22T09:12:11;3.30;;;2.60;;
66707;SDS011;53622;0.000;0.000;2023-11-22T09:14:40;2.10;;;2.00;;
66707;SDS011;53622;0.000;0.000;2023-11-22T09:17:09;2.40;;;2.20;;
66707;SDS011;53622;0.000;0.000;2023-11-22T09:19:38;2.05;;;1.75;;
66707;SDS011;53622;0.000;0.000;2023-11-22T09:22:07;5.03;;;1.90;;
66707;SDS011;53622;0.000;0.000;2023-11-22T09:24:35;4.13;;;1.95;;
66707;SDS011;53622;0.000;0.000;2023-11-22T09:27:06;2.13;;;1.92;;
66707;SDS011;53622;0.000;0.000;2023-11-22T09:29:37;3.00;;;1.83;;
66707;SDS011;53622;0.000;0.000;2023-11-22T09:32:06;2.25;;;1.77;;
66707;SDS011;53622;0.000;0.000;2023-11-22T09:34:34;2.75;;;1.80;;
66707;SDS011;53622;0.000;0.000;2023-11-22T09:37:03;4.65;;;2.10;;
66707;SDS011;53622;0.000;0.000;2023-11-22T09:39:32;1.65;;;1.55;;
66707;SDS011;53622;0.000;0.000;2023-11-22T09:42:01;1.55;;;1.45;;
66707;SDS011;53622;0.000;0.000;2023-11-22T09:44:33;3.45;;;1.40;;
66707;SDS011;53622;0.000;0.000;2023-11-22T09:47:03;1.95;;;1.48;;
66707;SDS011;53622;0.000;0.000;2023-11-22T09:49:33;1.55;;;1.45;;
66707;SDS011;53622;0.000;0.000;2023-11-22T09:52:03;1.98;;;1.40;;
66707;SDS011;53622;0.000;0.000;2023-11-22T09:54:34;2.40;;;1.30;;
66707;SDS011;53622;0.000;0.000;2023-11-22T09:57:07;2.55;;;1.50;;
66707;SDS011;53622;0.000;0.000;2023-11-22T09:59:39;1.30;;;1.10;;
66707;SDS011;53622;0.000;0.000;2023-11-22T10:02:09;1.42;;;1.30;;
66707;SDS011;53622;0.000;0.000;2023-11-22T10:04:38;1.60;;;1.05;;
66707;SDS011;53622;0.000;0.000;2023-11-22T10:07:07;2.25;;;1.15;;
66707;SDS011;53622;0.000;0.000;2023-11-22T10:09:37;3.75;;;1.38;;
66707;SDS011;53622;0.000;0.000;2023-11-22T10:12:08;1.25;;;1.15;;
66707;SDS011;53622;0.000;0.000;2023-11-22T10:14:41;1.42;;;1.15;;
66707;SDS011;53622;0.000;0.000;2023-11-22T10:17:10;1.55;;;0.90;;
66707;SDS011;53622;0.000;0.000;2023-11-22T10:19:38;1.77;;;1.38;;
66707;SDS011;53622;0.000;0.000;2023-11-22T10:22:08;1.23;;;0.90;;
66707;SDS011;53622;0.000;0.000;2023-11-22T10:24:37;1.70;;;1.20;;
66707;SDS011;53622;0.000;0.000;2023-11-22T10:27:07;3.13;;;1.08;;
66707;SDS011;53622;0.000;0.000;2023-11-22T10:29:37;2.05;;;1.00;;
66707;SDS011;53622;0.000;0.000;2023-11-22T10:32:07;2.63;;;1.00;;
66707;SDS011;53622;0.000;0.000;2023-11-22T10:34:36;2.10;;;1.20;;
66707;SDS011;53622;0.000;0.000;2023-11-22T10:37:05;3.53;;;0.90;;
66707;SDS011;53622;0.000;0.000;2023-11-22T10:39:36;2.58;;;0.90;;
66707;SDS011;53622;0.000;0.000;2023-11-22T10:42:06;3.95;;;1.00;;
66707;SDS011;53622;0.000;0.000;2023-11-22T10:44:36;1.92;;;1.20;;
66707;SDS011;53622;0.000;0.000;2023-11-22T10:47:08;1.05;;;0.73;;
66707;SDS011;53622;0.000;0.000;2023-11-22T10:49:38;1.50;;;1.00;;
66707;SDS011;53622;0.000;0.000;2023-11-22T10:52:07;0.73;;;0.73;;
66707;SDS011;53622;0.000;0.000;2023-11-22T10:54:41;1.02;;;0.90;;
66707;SDS011;53622;0.000;0.000;2023-11-22T10:57:18;8.18;;;1.00;;
66707;SDS011;53622;0.000;0.000;2023-11-22T10:59:52;2.35;;;0.70;;
66707;SDS011;53622;0.000;0.000;2023-11-22T11:02:24;1.77;;;0.80;;
66707;SDS011;53622;0.000;0.000;2023-11-22T11:04:58;0.93;;;0.65;;
66707;SDS011;53622;0.000;0.000;2023-11-22T11:07:30;3.70;;;0.90;;
66707;SDS011;53622;0.000;0.000;2023-11-22T11:10:01;2.65;;;0.90;;
66707;SDS011;53622;0.000;0.000;2023-11-22T11:12:42;1.52;;;1.05;;
66707;SDS011;53622;0.000;0.000;2023-11-22T11:15:13;1.35;;;0.90;;
66707;SDS011;53622;0.000;0.000;2023-11-22T11:17:45;2.55;;;0.90;;
66707;SDS011;53622;0.000;0.000;2023-11-22T11:20:17;2.05;;;1.15;;
66707;SDS011;53622;0.000;0.000;2023-11-22T11:22:47;2.22;;;0.90;;
66707;SDS011;53622;0.000;0.000;2023-11-22T11:25:16;2.75;;;1.20;;
66707;SDS011;53622;0.000;0.000;2023-11-22T11:27:55;1.02;;;0.93;;
66707;SDS011;53622;0.000;0.000;2023-11-22T11:30:40;2.97;;;0.98;;
66707;SDS011;53622;0.000;0.000;2023-11-22T11:33:12;1.80;;;0.82;;
66707;SDS011;53622;0.000;0.000;2023-11-22T11:35:45;1.73;;;0.90;;
66707;SDS011;53622;0.000;0.000;2023-11-22T11:38:16;1.73;;;1.00;;
66707;SDS011;53622;0.000;0.000;2023-11-22T11:40:48;3.33;;;1.77;;
66707;SDS011;53622;0.000;0.000;2023-11-22T11:43:20;3.58;;;3.28;;
66707;SDS011;53622;0.000;0.000;2023-11-22T11:45:49;5.30;;;2.92;;
66707;SDS011;53622;0.000;0.000;2023-11-22T11:48:21;4.10;;;3.75;;
66707;SDS011;53622;0.000;0.000;2023-11-22T11:50:52;5.15;;;4.65;;
66707;SDS011;53622;0.000;0.000;2023-11-22T11:53:20;4.20;;;3.80;;
66707;SDS011;53622;0.000;0.000;2023-11-22T11:55:50;4.45;;;4.15;;
66707;SDS011;53622;0.000;0.000;2023-11-22T11:58:20;7.97;;;6.15;;
66707;SDS011;53622;0.000;0.000;2023-11-22T12:00:50;7.15;;;6.40;;
66707;SDS011;53622;0.000;0.000;2023-11-22T12:03:22;5.68;;;5.18;;
66707;SDS011;53622;0.000;0.000;2023-11-22T12:05:51;5.82;;;4.97;;
66707;SDS011;53622;0.000;0.000;2023-11-22T12:08:20;5.18;;;4.78;;
66707;SDS011;53622;0.000;0.000;2023-11-22T12:10:49;4.93;;;4.43;;
66707;SDS011;53622;0.000;0.000;2023-11-22T12:13:18;6.07;;;4.43;;
66707;SDS011;53622;0.000;0.000;2023-11-22T12:15:48;4.03;;;3.72;;
66707;SDS011;53622;0.000;0.000;2023-11-22T12:18:18;3.97;;;3.67;;
66707;SDS011;53622;0.000;0.000;2023-11-22T12:20:55;3.88;;;3.55;;
66707;SDS011;53622;0.000;0.000;2023-11-22T12:23:25;4.40;;;3.72;;
66707;SDS011;53622;0.000;0.000;2023-11-22T12:25:56;4.50;;;3.78;;
66707;SDS011;53622;0.000;0.000;2023-11-22T12:28:26;3.67;;;3.38;;
66707;SDS011;53622;0.000;0.000;2023-11-22T12:31:05;3.95;;;3.20;;
66707;SDS011;53622;0.000;0.000;2023-11-22T12:33:36;3.50;;;3.20;;
66707;SDS011;53622;0.000;0.000;2023-11-22T12:36:08;4.68;;;3.22;;
66707;SDS011;53622;0.000;0.000;2023-11-22T12:38:38;3.70;;;3.40;;
66707;SDS011;53622;0.000;0.000;2023-11-22T12:41:08;3.47;;;3.20;;
66707;SDS011;53622;0.000;0.000;2023-11-22T12:43:37;4.18;;;3.78;;
66707;SDS011;53622;0.000;0.000;2023-11-22T12:46:16;3.40;;;3.08;;
66707;SDS011;53622;0.000;0.000;2023-11-22T12:48:45;3.40;;;3.10;;
66707;SDS011;53622;0.000;0.000;2023-11-22T12:51:16;3.00;;;2.70;;
66707;SDS011;53622;0.000;0.000;2023-11-22T12:53:49;2.88;;;2.33;;
66707;SDS011;53622;0.000;0.000;2023-11-22T12:56:18;2.20;;;2.03;;
66707;SDS011;53622;0.000;0.000;2023-11-22T12:58:46;2.50;;;2.30;;
66707;SDS011;53622;0.000;0.000;2023-11-22T13:01:15;2.35;;;2.15;;
66707;SDS011;53622;0.000;0.000;2023-11-22T13:03:44;2.72;;;2.53;;
66707;SDS011;53622;0.000;0.000;2023-11-22T13:06:13;2.05;;;1.95;;
66707;SDS011;53622;0.000;0.000;2023-11-22T13:08:46;2.60;;;2.30;;
66707;SDS011;53622;0.000;0.000;2023-11-22T13:11:14;2.70;;;2.47;;
66707;SDS011;53622;0.000;0.000;2023-11-22T13:13:43;2.30;;;2.05;;
66707;SDS011;53622;0.000;0.000;2023-11-22T13:16:13;2.22;;;2.08;;
66707;SDS011;53622;0.000;0.000;2023-11-22T13:18:43;2.05;;;1.85;;
66707;SDS011;53622;0.000;0.000;2023-11-22T13:21:12;1.80;;;1.70;;
66707;SDS011;53622;0.000;0.000;2023-11-22T13:23:40;1.80;;;1.70;;
66707;SDS011;53622;0.000;0.000;2023-11-22T13:26:10;2.03;;;1.92;;
66707;SDS011;53622;0.000;0.000;2023-11-22T13:28:41;13.82;;;12.48;;
66707;SDS011;53622;0.000;0.000;2023-11-22T13:31:09;34.33;;;31.02;;
66707;SDS011;53622;0.000;0.000;2023-11-22T13:33:39;24.05;;;21.75;;
66707;SDS011;53622;0.000;0.000;2023-11-22T13:36:10;14.73;;;13.27;;
66707;SDS011;53622;0.000;0.000;2023-11-22T13:38:40;10.82;;;9.82;;
66707;SDS011;53622;0.000;0.000;2023-11-22T13:41:11;10.38;;;9.38;;
66707;SDS011;53622;0.000;0.000;2023-11-22T13:43:40;12.20;;;9.90;;
66707;SDS011;53622;0.000;0.000;2023-11-22T13:46:08;10.32;;;9.32;;
66707;SDS011;53622;0.000;0.000;2023-11-22T13:48:39;9.40;;;8.60;;
66707;SDS011;53622;0.000;0.000;2023-11-22T13:51:08;9.25;;;8.45;;
66707;SDS011;53622;0.000;0.000;2023-11-22T13:53:38;10.05;;;9.15;;
66707;SDS011;53622;0.000;0.000;2023-11-22T13:56:12;8.73;;;7.80;;
66707;SDS011;53622;0.000;0.000;2023-11-22T13:58:44;9.02;;;8.23;;
66707;SDS011;53622;0.000;0.000;2023-11-22T14:01:12;8.25;;;7.53;;
66707;SDS011;53622;0.000;0.000;2023-11-22T14:03:49;8.27;;;7.50;;
66707;SDS011;53622;0.000;0.000;2023-11-22T14:06:19;7.70;;;7.00;;
66707;SDS011;53622;0.000;0.000;2023-11-22T14:08:47;7.20;;;6.60;;
66707;SDS011;53622;0.000;0.000;2023-11-22T14:11:17;6.70;;;6.10;;
66707;SDS011;53622;0.000;0.000;2023-11-22T14:13:46;6.15;;;5.65;;
66707;SDS011;53622;0.000;0.000;2023-11-22T14:16:15;6.00;;;5.50;;
66707;SDS011;53622;0.000;0.000;2023-11-22T14:18:44;7.03;;;6.43;;
66707;SDS011;53622;0.000;0.000;2023-11-22T14:21:13;5.90;;;5.30;;
66707;SDS011;53622;0.000;0.000;2023-11-22T14:23:43;5.50;;;5.00;;
66707;SDS011;53622;0.000;0.000;2023-11-22T14:26:11;5.38;;;4.95;;
66707;SDS011;53622;0.000;0.000;2023-11-22T14:28:42;4.72;;;4.32;;
66707;SDS011;53622;0.000;0.000;2023-11-22T14:31:10;4.88;;;4.47;;
66707;SDS011;53622;0.000;0.000;2023-11-22T14:33:41;4.68;;;4.20;;
66707;SDS011;53622;0.000;0.000;2023-11-22T14:36:10;4.25;;;3.85;;
66707;SDS011;53622;0.000;0.000;2023-11-22T14:38:40;4.10;;;3.80;;
66707;SDS011;53622;0.000;0.000;2023-11-22T14:41:10;4.10;;;3.80;;
66707;SDS011;53622;0.000;0.000;2023-11-22T14:43:39;5.22;;;4.20;;
66707;SDS011;53622;0.000;0.000;2023-11-22T14:46:09;4.90;;;4.50;;
66707;SDS011;53622;0.000;0.000;2023-11-22T14:48:38;3.92;;;3.63;;
66707;SDS011;53622;0.000;0.000;2023-11-22T14:51:07;3.83;;;3.53;;
66707;SDS011;53622;0.000;0.000;2023-11-22T14:53:36;3.83;;;3.53;;
66707;SDS011;53622;0.000;0.000;2023-11-22T14:56:06;3.50;;;3.20;;
66707;SDS011;53622;0.000;0.000;2023-11-22T14:58:37;4.18;;;3.25;;
66707;SDS011;53622;0.000;0.000;2023-11-22T15:01:08;3.50;;;3.20;;
66707;SDS011;53622;0.000;0.000;2023-11-22T15:03:36;3.97;;;3.00;;
66707;SDS011;53622;0.000;0.000;2023-11-22T15:06:05;3.15;;;2.92;;
66707;SDS011;53622;0.000;0.000;2023-11-22T15:08:34;3.30;;;3.00;;
66707;SDS011;53622;0.000;0.000;2023-11-22T15:11:03;2.80;;;2.60;;
66707;SDS011;53622;0.000;0.000;2023-11-22T15:13:38;3.03;;;2.42;;
66707;SDS011;53622;0.000;0.000;2023-11-22T15:16:08;2.60;;;2.40;;